sensor_id;sensor_type;location;lat;lon;timestamp;P1;durP1;ratioP1;P2;durP2;ratioP2
32172;SDS011;18679;45.190;5.722;2023-07-29T00:02:31;4.03;;;2.40;;
32172;SDS011;18679;45.190;5.722;2023-07-29T00:05:32;3.70;;;2.40;;
32172;SDS011;18679;45.190;5.722;2023-07-29T00:08:33;4.18;;;2.55;;
32172;SDS011;18679;45.190;5.722;2023-07-29T00:11:34;5.88;;;2.20;;
32172;SDS011;18679;45.190;5.722;2023-07-29T00:14:35;6.10;;;2.65;;
32172;SDS011;18679;45.190;5.722;2023-07-29T00:17:36;2.88;;;2.00;;
32172;SDS011;18679;45.190;5.722;2023-07-29T00:20:36;3.88;;;2.33;;
32172;SDS011;18679;45.190;5.722;2023-07-29T00:23:37;3.88;;;2.22;;
32172;SDS011;18679;45.190;5.722;2023-07-29T00:26:38;3.22;;;2.10;;
32172;SDS011;18679;45.190;5.722;2023-07-29T00:29:39;10.73;;;2.70;;
32172;SDS011;18679;45.190;5.722;2023-07-29T00:32:39;6.22;;;2.50;;
32172;SDS011;18679;45.190;5.722;2023-07-29T00:35:40;3.80;;;2.38;;
32172;SDS011;18679;45.190;5.722;2023-07-29T00:38:41;3.17;;;2.42;;
32172;SDS011;18679;45.190;5.722;2023-07-29T00:41:42;10.98;;;2.00;;
32172;SDS011;18679;45.190;5.722;2023-07-29T00:44:43;11.32;;;2.40;;
32172;SDS011;18679;45.190;5.722;2023-07-29T00:47:43;5.45;;;2.60;;
32172;SDS011;18679;45.190;5.722;2023-07-29T00:50:45;5.53;;;2.67;;
32172;SDS011;18679;45.190;5.722;2023-07-29T00:53:46;3.33;;;2.05;;
32172;SDS011;18679;45.190;5.722;2023-07-29T00:56:46;5.40;;;2.10;;
32172;SDS011;18679;45.190;5.722;2023-07-29T00:59:47;4.43;;;2.40;;
32172;SDS011;18679;45.190;5.722;2023-07-29T01:02:48;5.10;;;2.53;;
32172;SDS011;18679;45.190;5.722;2023-07-29T01:09:17;4.38;;;2.53;;
32172;SDS011;18679;45.190;5.722;2023-07-29T01:12:42;4.63;;;2.45;;
32172;SDS011;18679;45.190;5.722;2023-07-29T01:15:55;5.97;;;2.53;;
32172;SDS011;18679;45.190;5.722;2023-07-29T01:19:01;6.40;;;3.22;;
32172;SDS011;18679;45.190;5.722;2023-07-29T01:22:07;5.97;;;2.30;;
32172;SDS011;18679;45.190;5.722;2023-07-29T01:25:09;5.50;;;2.55;;
32172;SDS011;18679;45.190;5.722;2023-07-29T01:28:10;6.45;;;2.85;;
32172;SDS011;18679;45.190;5.722;2023-07-29T01:34:26;4.50;;;2.42;;
32172;SDS011;18679;45.190;5.722;2023-07-29T01:37:32;4.20;;;2.63;;
32172;SDS011;18679;45.190;5.722;2023-07-29T01:40:36;4.03;;;2.28;;
32172;SDS011;18679;45.190;5.722;2023-07-29T01:43:37;6.18;;;2.90;;
32172;SDS011;18679;45.190;5.722;2023-07-29T01:46:45;6.65;;;2.80;;
32172;SDS011;18679;45.190;5.722;2023-07-29T01:49:47;4.55;;;2.80;;
32172;SDS011;18679;45.190;5.722;2023-07-29T01:52:48;5.20;;;2.60;;
32172;SDS011;18679;45.190;5.722;2023-07-29T01:55:48;8.02;;;3.55;;
32172;SDS011;18679;45.190;5.722;2023-07-29T01:58:50;5.15;;;2.53;;
32172;SDS011;18679;45.190;5.722;2023-07-29T02:01:50;5.13;;;2.50;;
32172;SDS011;18679;45.190;5.722;2023-07-29T02:04:51;4.90;;;2.83;;
32172;SDS011;18679;45.190;5.722;2023-07-29T02:07:52;6.75;;;2.70;;
32172;SDS011;18679;45.190;5.722;2023-07-29T02:10:53;7.53;;;3.58;;
32172;SDS011;18679;45.190;5.722;2023-07-29T02:13:54;8.80;;;3.78;;
32172;SDS011;18679;45.190;5.722;2023-07-29T02:16:55;4.72;;;2.72;;
32172;SDS011;18679;45.190;5.722;2023-07-29T02:19:56;7.53;;;3.13;;
32172;SDS011;18679;45.190;5.722;2023-07-29T02:22:57;6.85;;;2.97;;
32172;SDS011;18679;45.190;5.722;2023-07-29T02:25:58;8.98;;;3.83;;
32172;SDS011;18679;45.190;5.722;2023-07-29T02:28:59;8.23;;;2.85;;
32172;SDS011;18679;45.190;5.722;2023-07-29T02:32:00;5.50;;;2.80;;
32172;SDS011;18679;45.190;5.722;2023-07-29T02:35:01;10.15;;;3.13;;
32172;SDS011;18679;45.190;5.722;2023-07-29T02:38:02;4.70;;;2.70;;
32172;SDS011;18679;45.190;5.722;2023-07-29T02:41:03;5.15;;;2.70;;
32172;SDS011;18679;45.190;5.722;2023-07-29T02:44:04;5.68;;;2.40;;
32172;SDS011;18679;45.190;5.722;2023-07-29T02:47:05;5.30;;;2.80;;
32172;SDS011;18679;45.190;5.722;2023-07-29T02:50:06;10.23;;;3.05;;
32172;SDS011;18679;45.190;5.722;2023-07-29T02:53:07;7.93;;;3.17;;
32172;SDS011;18679;45.190;5.722;2023-07-29T02:56:08;4.57;;;2.67;;
32172;SDS011;18679;45.190;5.722;2023-07-29T02:59:09;6.80;;;2.85;;
32172;SDS011;18679;45.190;5.722;2023-07-29T03:02:11;5.70;;;3.10;;
32172;SDS011;18679;45.190;5.722;2023-07-29T03:05:12;5.15;;;2.55;;
32172;SDS011;18679;45.190;5.722;2023-07-29T03:08:13;5.07;;;2.80;;
32172;SDS011;18679;45.190;5.722;2023-07-29T03:11:14;8.48;;;2.83;;
32172;SDS011;18679;45.190;5.722;2023-07-29T03:14:15;4.97;;;2.78;;
32172;SDS011;18679;45.190;5.722;2023-07-29T03:17:16;5.03;;;2.65;;
32172;SDS011;18679;45.190;5.722;2023-07-29T03:20:17;4.85;;;2.42;;
32172;SDS011;18679;45.190;5.722;2023-07-29T03:23:19;3.85;;;2.40;;
32172;SDS011;18679;45.190;5.722;2023-07-29T03:26:20;3.45;;;2.28;;
32172;SDS011;18679;45.190;5.722;2023-07-29T03:29:21;4.50;;;2.70;;
32172;SDS011;18679;45.190;5.722;2023-07-29T03:32:21;6.35;;;2.75;;
32172;SDS011;18679;45.190;5.722;2023-07-29T03:35:23;5.78;;;3.08;;
32172;SDS011;18679;45.190;5.722;2023-07-29T03:38:23;4.20;;;2.67;;
32172;SDS011;18679;45.190;5.722;2023-07-29T03:41:24;4.45;;;2.72;;
32172;SDS011;18679;45.190;5.722;2023-07-29T03:44:25;6.78;;;2.92;;
32172;SDS011;18679;45.190;5.722;2023-07-29T03:47:26;5.88;;;2.80;;
32172;SDS011;18679;45.190;5.722;2023-07-29T03:50:28;5.70;;;2.90;;
32172;SDS011;18679;45.190;5.722;2023-07-29T03:53:30;5.15;;;2.88;;
32172;SDS011;18679;45.190;5.722;2023-07-29T03:56:30;3.97;;;2.35;;
32172;SDS011;18679;45.190;5.722;2023-07-29T03:59:31;5.90;;;2.78;;
32172;SDS011;18679;45.190;5.722;2023-07-29T04:02:32;4.75;;;2.55;;
32172;SDS011;18679;45.190;5.722;2023-07-29T04:05:33;3.58;;;2.53;;
32172;SDS011;18679;45.190;5.722;2023-07-29T04:08:34;3.38;;;2.33;;
32172;SDS011;18679;45.190;5.722;2023-07-29T04:11:35;5.78;;;2.85;;
32172;SDS011;18679;45.190;5.722;2023-07-29T04:14:36;4.35;;;2.50;;
32172;SDS011;18679;45.190;5.722;2023-07-29T04:17:37;7.18;;;3.53;;
32172;SDS011;18679;45.190;5.722;2023-07-29T04:20:38;5.05;;;3.65;;
32172;SDS011;18679;45.190;5.722;2023-07-29T04:23:39;5.18;;;3.20;;
32172;SDS011;18679;45.190;5.722;2023-07-29T04:26:40;5.50;;;2.90;;
32172;SDS011;18679;45.190;5.722;2023-07-29T04:29:41;10.43;;;3.75;;
32172;SDS011;18679;45.190;5.722;2023-07-29T04:32:45;8.55;;;3.13;;
32172;SDS011;18679;45.190;5.722;2023-07-29T04:35:48;7.80;;;3.60;;
32172;SDS011;18679;45.190;5.722;2023-07-29T04:38:49;11.05;;;5.20;;
32172;SDS011;18679;45.190;5.722;2023-07-29T04:41:50;8.95;;;4.93;;
32172;SDS011;18679;45.190;5.722;2023-07-29T04:44:51;9.98;;;4.50;;
32172;SDS011;18679;45.190;5.722;2023-07-29T04:47:52;9.50;;;5.50;;
32172;SDS011;18679;45.190;5.722;2023-07-29T04:50:52;8.68;;;4.75;;
32172;SDS011;18679;45.190;5.722;2023-07-29T04:53:53;7.57;;;3.83;;
32172;SDS011;18679;45.190;5.722;2023-07-29T04:56:54;6.93;;;3.83;;
32172;SDS011;18679;45.190;5.722;2023-07-29T04:59:55;8.10;;;3.42;;
32172;SDS011;18679;45.190;5.722;2023-07-29T05:02:56;5.38;;;3.17;;
32172;SDS011;18679;45.190;5.722;2023-07-29T05:05:57;5.32;;;2.47;;
32172;SDS011;18679;45.190;5.722;2023-07-29T05:09:11;12.57;;;3.65;;
32172;SDS011;18679;45.190;5.722;2023-07-29T05:12:13;7.47;;;3.20;;
32172;SDS011;18679;45.190;5.722;2023-07-29T05:15:14;5.57;;;3.30;;
32172;SDS011;18679;45.190;5.722;2023-07-29T05:18:16;7.25;;;3.55;;
32172;SDS011;18679;45.190;5.722;2023-07-29T05:21:16;7.72;;;3.60;;
32172;SDS011;18679;45.190;5.722;2023-07-29T05:24:17;6.13;;;2.92;;
32172;SDS011;18679;45.190;5.722;2023-07-29T05:27:18;9.02;;;3.42;;
32172;SDS011;18679;45.190;5.722;2023-07-29T05:30:19;7.47;;;3.47;;
32172;SDS011;18679;45.190;5.722;2023-07-29T05:33:20;5.97;;;3.20;;
32172;SDS011;18679;45.190;5.722;2023-07-29T05:36:21;6.00;;;3.22;;
32172;SDS011;18679;45.190;5.722;2023-07-29T05:39:21;8.05;;;2.95;;
32172;SDS011;18679;45.190;5.722;2023-07-29T05:42:24;11.55;;;3.38;;
32172;SDS011;18679;45.190;5.722;2023-07-29T05:45:25;6.55;;;3.20;;
32172;SDS011;18679;45.190;5.722;2023-07-29T05:48:27;4.32;;;2.72;;
32172;SDS011;18679;45.190;5.722;2023-07-29T05:51:28;8.18;;;3.17;;
32172;SDS011;18679;45.190;5.722;2023-07-29T05:54:28;5.28;;;3.28;;
32172;SDS011;18679;45.190;5.722;2023-07-29T05:57:29;4.00;;;2.63;;
32172;SDS011;18679;45.190;5.722;2023-07-29T06:00:30;6.03;;;2.90;;
32172;SDS011;18679;45.190;5.722;2023-07-29T06:03:31;4.82;;;2.72;;
32172;SDS011;18679;45.190;5.722;2023-07-29T06:06:32;4.65;;;2.97;;
32172;SDS011;18679;45.190;5.722;2023-07-29T06:09:32;6.03;;;2.83;;
32172;SDS011;18679;45.190;5.722;2023-07-29T06:12:33;5.93;;;3.15;;
32172;SDS011;18679;45.190;5.722;2023-07-29T06:15:34;4.25;;;2.65;;
32172;SDS011;18679;45.190;5.722;2023-07-29T06:18:35;6.32;;;2.90;;
32172;SDS011;18679;45.190;5.722;2023-07-29T06:21:36;5.57;;;3.08;;
32172;SDS011;18679;45.190;5.722;2023-07-29T06:24:36;8.05;;;3.10;;
32172;SDS011;18679;45.190;5.722;2023-07-29T06:27:37;7.55;;;3.45;;
32172;SDS011;18679;45.190;5.722;2023-07-29T06:30:38;8.13;;;3.28;;
32172;SDS011;18679;45.190;5.722;2023-07-29T06:33:39;6.18;;;3.17;;
32172;SDS011;18679;45.190;5.722;2023-07-29T06:36:40;5.70;;;3.50;;
32172;SDS011;18679;45.190;5.722;2023-07-29T06:39:40;6.03;;;2.78;;
32172;SDS011;18679;45.190;5.722;2023-07-29T06:42:41;7.70;;;3.40;;
32172;SDS011;18679;45.190;5.722;2023-07-29T06:45:42;5.57;;;3.05;;
32172;SDS011;18679;45.190;5.722;2023-07-29T06:48:43;7.72;;;3.80;;
32172;SDS011;18679;45.190;5.722;2023-07-29T06:51:44;5.75;;;3.22;;
32172;SDS011;18679;45.190;5.722;2023-07-29T06:54:45;10.23;;;3.45;;
32172;SDS011;18679;45.190;5.722;2023-07-29T06:57:45;6.65;;;3.58;;
32172;SDS011;18679;45.190;5.722;2023-07-29T07:00:46;4.95;;;2.95;;
32172;SDS011;18679;45.190;5.722;2023-07-29T07:03:47;5.72;;;2.88;;
32172;SDS011;18679;45.190;5.722;2023-07-29T07:06:48;6.15;;;3.28;;
32172;SDS011;18679;45.190;5.722;2023-07-29T07:09:49;8.45;;;2.85;;
32172;SDS011;18679;45.190;5.722;2023-07-29T07:12:49;9.25;;;3.15;;
32172;SDS011;18679;45.190;5.722;2023-07-29T07:15:50;3.90;;;2.72;;
32172;SDS011;18679;45.190;5.722;2023-07-29T07:18:54;6.10;;;3.10;;
32172;SDS011;18679;45.190;5.722;2023-07-29T07:21:54;7.28;;;3.35;;
32172;SDS011;18679;45.190;5.722;2023-07-29T07:24:55;5.50;;;2.92;;
32172;SDS011;18679;45.190;5.722;2023-07-29T07:27:56;5.20;;;2.85;;
32172;SDS011;18679;45.190;5.722;2023-07-29T07:30:57;4.45;;;2.83;;
32172;SDS011;18679;45.190;5.722;2023-07-29T07:33:58;6.97;;;3.40;;
32172;SDS011;18679;45.190;5.722;2023-07-29T07:36:58;7.20;;;2.90;;
32172;SDS011;18679;45.190;5.722;2023-07-29T07:40:00;10.93;;;3.22;;
32172;SDS011;18679;45.190;5.722;2023-07-29T07:43:01;6.22;;;3.38;;
32172;SDS011;18679;45.190;5.722;2023-07-29T07:46:02;5.25;;;3.00;;
32172;SDS011;18679;45.190;5.722;2023-07-29T07:49:03;7.10;;;3.63;;
32172;SDS011;18679;45.190;5.722;2023-07-29T07:52:04;4.80;;;3.00;;
32172;SDS011;18679;45.190;5.722;2023-07-29T07:55:05;6.03;;;3.20;;
32172;SDS011;18679;45.190;5.722;2023-07-29T07:58:07;5.78;;;2.95;;
32172;SDS011;18679;45.190;5.722;2023-07-29T08:01:08;4.10;;;2.70;;
32172;SDS011;18679;45.190;5.722;2023-07-29T08:04:09;4.07;;;2.50;;
32172;SDS011;18679;45.190;5.722;2023-07-29T08:07:10;5.80;;;3.20;;
32172;SDS011;18679;45.190;5.722;2023-07-29T08:10:14;6.40;;;2.85;;
32172;SDS011;18679;45.190;5.722;2023-07-29T08:13:15;4.50;;;2.75;;
32172;SDS011;18679;45.190;5.722;2023-07-29T08:16:16;3.85;;;2.47;;
32172;SDS011;18679;45.190;5.722;2023-07-29T08:19:17;8.80;;;3.05;;
32172;SDS011;18679;45.190;5.722;2023-07-29T08:22:17;4.93;;;3.00;;
32172;SDS011;18679;45.190;5.722;2023-07-29T08:25:18;6.20;;;3.08;;
32172;SDS011;18679;45.190;5.722;2023-07-29T08:28:19;5.18;;;2.95;;
32172;SDS011;18679;45.190;5.722;2023-07-29T08:31:21;5.15;;;3.20;;
32172;SDS011;18679;45.190;5.722;2023-07-29T08:34:22;5.53;;;3.10;;
32172;SDS011;18679;45.190;5.722;2023-07-29T08:37:23;6.47;;;3.10;;
32172;SDS011;18679;45.190;5.722;2023-07-29T08:40:24;5.72;;;3.25;;
32172;SDS011;18679;45.190;5.722;2023-07-29T08:43:29;6.80;;;2.85;;
32172;SDS011;18679;45.190;5.722;2023-07-29T08:46:32;8.73;;;4.10;;
32172;SDS011;18679;45.190;5.722;2023-07-29T08:49:33;15.38;;;4.47;;
32172;SDS011;18679;45.190;5.722;2023-07-29T08:52:34;5.55;;;3.28;;
32172;SDS011;18679;45.190;5.722;2023-07-29T08:55:35;5.22;;;2.85;;
32172;SDS011;18679;45.190;5.722;2023-07-29T08:58:36;7.95;;;3.55;;
32172;SDS011;18679;45.190;5.722;2023-07-29T09:01:39;9.27;;;4.07;;
32172;SDS011;18679;45.190;5.722;2023-07-29T09:04:40;13.70;;;3.75;;
32172;SDS011;18679;45.190;5.722;2023-07-29T09:07:41;6.70;;;3.50;;
32172;SDS011;18679;45.190;5.722;2023-07-29T09:10:42;8.15;;;3.40;;
32172;SDS011;18679;45.190;5.722;2023-07-29T09:13:43;6.00;;;3.33;;
32172;SDS011;18679;45.190;5.722;2023-07-29T09:16:44;4.78;;;2.97;;
32172;SDS011;18679;45.190;5.722;2023-07-29T09:19:49;5.25;;;2.80;;
32172;SDS011;18679;45.190;5.722;2023-07-29T09:22:51;5.85;;;3.08;;
32172;SDS011;18679;45.190;5.722;2023-07-29T09:25:52;4.90;;;3.42;;
32172;SDS011;18679;45.190;5.722;2023-07-29T09:29:01;4.90;;;3.28;;
32172;SDS011;18679;45.190;5.722;2023-07-29T09:32:21;5.15;;;3.38;;
32172;SDS011;18679;45.190;5.722;2023-07-29T09:35:22;7.28;;;3.50;;
32172;SDS011;18679;45.190;5.722;2023-07-29T09:38:27;4.65;;;3.33;;
32172;SDS011;18679;45.190;5.722;2023-07-29T09:41:28;7.53;;;3.20;;
32172;SDS011;18679;45.190;5.722;2023-07-29T09:44:35;6.55;;;3.38;;
32172;SDS011;18679;45.190;5.722;2023-07-29T09:47:36;7.82;;;3.85;;
32172;SDS011;18679;45.190;5.722;2023-07-29T09:50:37;6.05;;;3.88;;
32172;SDS011;18679;45.190;5.722;2023-07-29T09:53:45;5.90;;;3.42;;
32172;SDS011;18679;45.190;5.722;2023-07-29T09:56:47;7.10;;;3.58;;
32172;SDS011;18679;45.190;5.722;2023-07-29T09:59:54;7.38;;;3.60;;
32172;SDS011;18679;45.190;5.722;2023-07-29T10:02:56;5.75;;;3.47;;
32172;SDS011;18679;45.190;5.722;2023-07-29T10:06:04;5.60;;;3.35;;
32172;SDS011;18679;45.190;5.722;2023-07-29T10:09:05;3.63;;;2.47;;
32172;SDS011;18679;45.190;5.722;2023-07-29T10:12:07;2.90;;;2.10;;
32172;SDS011;18679;45.190;5.722;2023-07-29T10:15:09;4.10;;;2.47;;
32172;SDS011;18679;45.190;5.722;2023-07-29T10:18:10;5.68;;;2.35;;
32172;SDS011;18679;45.190;5.722;2023-07-29T10:21:15;2.75;;;2.25;;
32172;SDS011;18679;45.190;5.722;2023-07-29T10:24:18;4.18;;;2.40;;
32172;SDS011;18679;45.190;5.722;2023-07-29T10:27:23;2.93;;;1.70;;
32172;SDS011;18679;45.190;5.722;2023-07-29T10:30:27;5.82;;;2.38;;
32172;SDS011;18679;45.190;5.722;2023-07-29T10:33:28;7.60;;;2.28;;
32172;SDS011;18679;45.190;5.722;2023-07-29T10:36:31;6.07;;;2.30;;
32172;SDS011;18679;45.190;5.722;2023-07-29T10:39:37;7.78;;;2.03;;
32172;SDS011;18679;45.190;5.722;2023-07-29T10:42:41;3.57;;;1.93;;
32172;SDS011;18679;45.190;5.722;2023-07-29T10:46:21;3.28;;;2.20;;
32172;SDS011;18679;45.190;5.722;2023-07-29T10:49:25;3.80;;;2.47;;
32172;SDS011;18679;45.190;5.722;2023-07-29T10:55:35;3.38;;;1.85;;
32172;SDS011;18679;45.190;5.722;2023-07-29T10:58:37;6.45;;;2.20;;
32172;SDS011;18679;45.190;5.722;2023-07-29T11:01:41;2.53;;;1.70;;
32172;SDS011;18679;45.190;5.722;2023-07-29T11:04:46;3.70;;;2.28;;
32172;SDS011;18679;45.190;5.722;2023-07-29T11:07:48;5.47;;;2.55;;
32172;SDS011;18679;45.190;5.722;2023-07-29T11:11:05;5.15;;;2.03;;
32172;SDS011;18679;45.190;5.722;2023-07-29T11:14:08;2.85;;;1.80;;
32172;SDS011;18679;45.190;5.722;2023-07-29T11:17:09;3.60;;;2.33;;
32172;SDS011;18679;45.190;5.722;2023-07-29T11:20:11;7.72;;;2.35;;
32172;SDS011;18679;45.190;5.722;2023-07-29T11:23:12;3.72;;;2.08;;
32172;SDS011;18679;45.190;5.722;2023-07-29T11:26:16;4.10;;;2.25;;
32172;SDS011;18679;45.190;5.722;2023-07-29T11:29:17;7.05;;;2.58;;
32172;SDS011;18679;45.190;5.722;2023-07-29T11:32:18;3.22;;;1.90;;
32172;SDS011;18679;45.190;5.722;2023-07-29T11:35:18;15.05;;;2.58;;
32172;SDS011;18679;45.190;5.722;2023-07-29T11:38:20;4.80;;;2.20;;
32172;SDS011;18679;45.190;5.722;2023-07-29T11:41:22;3.92;;;2.20;;
32172;SDS011;18679;45.190;5.722;2023-07-29T11:44:23;7.22;;;2.78;;
32172;SDS011;18679;45.190;5.722;2023-07-29T11:47:24;4.13;;;2.35;;
32172;SDS011;18679;45.190;5.722;2023-07-29T11:50:26;3.50;;;2.20;;
32172;SDS011;18679;45.190;5.722;2023-07-29T11:53:29;3.83;;;2.22;;
32172;SDS011;18679;45.190;5.722;2023-07-29T11:56:30;6.20;;;2.47;;
32172;SDS011;18679;45.190;5.722;2023-07-29T11:59:33;4.13;;;2.30;;
32172;SDS011;18679;45.190;5.722;2023-07-29T12:02:36;4.38;;;2.72;;
32172;SDS011;18679;45.190;5.722;2023-07-29T12:05:39;5.10;;;2.92;;
32172;SDS011;18679;45.190;5.722;2023-07-29T12:08:40;9.80;;;2.97;;
32172;SDS011;18679;45.190;5.722;2023-07-29T12:11:45;4.93;;;3.00;;
32172;SDS011;18679;45.190;5.722;2023-07-29T12:14:46;5.70;;;3.55;;
32172;SDS011;18679;45.190;5.722;2023-07-29T12:17:47;5.43;;;3.08;;
32172;SDS011;18679;45.190;5.722;2023-07-29T12:20:48;4.32;;;2.75;;
32172;SDS011;18679;45.190;5.722;2023-07-29T12:23:49;6.63;;;2.80;;
32172;SDS011;18679;45.190;5.722;2023-07-29T12:26:51;4.10;;;2.75;;
32172;SDS011;18679;45.190;5.722;2023-07-29T12:29:52;5.25;;;2.30;;
32172;SDS011;18679;45.190;5.722;2023-07-29T12:32:53;5.45;;;3.05;;
32172;SDS011;18679;45.190;5.722;2023-07-29T12:35:54;8.93;;;2.45;;
32172;SDS011;18679;45.190;5.722;2023-07-29T12:38:58;6.82;;;3.10;;
32172;SDS011;18679;45.190;5.722;2023-07-29T12:42:00;4.00;;;2.53;;
32172;SDS011;18679;45.190;5.722;2023-07-29T12:45:02;5.15;;;2.67;;
32172;SDS011;18679;45.190;5.722;2023-07-29T12:48:03;12.98;;;4.55;;
32172;SDS011;18679;45.190;5.722;2023-07-29T12:51:03;7.72;;;2.47;;
32172;SDS011;18679;45.190;5.722;2023-07-29T12:54:04;4.47;;;2.67;;
32172;SDS011;18679;45.190;5.722;2023-07-29T12:57:05;4.32;;;2.70;;
32172;SDS011;18679;45.190;5.722;2023-07-29T13:00:07;3.80;;;2.60;;
32172;SDS011;18679;45.190;5.722;2023-07-29T13:03:09;4.78;;;2.80;;
32172;SDS011;18679;45.190;5.722;2023-07-29T13:06:09;4.35;;;2.72;;
32172;SDS011;18679;45.190;5.722;2023-07-29T13:09:10;4.95;;;2.97;;
32172;SDS011;18679;45.190;5.722;2023-07-29T13:12:11;5.57;;;2.40;;
32172;SDS011;18679;45.190;5.722;2023-07-29T13:15:12;8.95;;;2.35;;
32172;SDS011;18679;45.190;5.722;2023-07-29T13:18:13;6.53;;;3.17;;
32172;SDS011;18679;45.190;5.722;2023-07-29T13:21:14;3.78;;;2.25;;
32172;SDS011;18679;45.190;5.722;2023-07-29T13:24:14;5.32;;;2.88;;
32172;SDS011;18679;45.190;5.722;2023-07-29T13:27:15;3.33;;;2.22;;
32172;SDS011;18679;45.190;5.722;2023-07-29T13:30:16;5.30;;;2.65;;
32172;SDS011;18679;45.190;5.722;2023-07-29T13:33:17;4.55;;;2.65;;
32172;SDS011;18679;45.190;5.722;2023-07-29T13:36:18;7.45;;;2.55;;
32172;SDS011;18679;45.190;5.722;2023-07-29T13:39:18;6.68;;;2.80;;
32172;SDS011;18679;45.190;5.722;2023-07-29T13:42:19;4.35;;;2.95;;
32172;SDS011;18679;45.190;5.722;2023-07-29T13:45:20;5.75;;;2.90;;
32172;SDS011;18679;45.190;5.722;2023-07-29T13:48:21;8.63;;;3.03;;
32172;SDS011;18679;45.190;5.722;2023-07-29T13:51:22;4.47;;;2.58;;
32172;SDS011;18679;45.190;5.722;2023-07-29T13:54:23;6.03;;;2.47;;
32172;SDS011;18679;45.190;5.722;2023-07-29T13:57:24;3.03;;;2.20;;
32172;SDS011;18679;45.190;5.722;2023-07-29T14:00:25;6.20;;;2.85;;
32172;SDS011;18679;45.190;5.722;2023-07-29T14:03:26;6.57;;;2.20;;
32172;SDS011;18679;45.190;5.722;2023-07-29T14:06:29;3.45;;;2.38;;
32172;SDS011;18679;45.190;5.722;2023-07-29T14:09:30;2.45;;;2.10;;
32172;SDS011;18679;45.190;5.722;2023-07-29T14:12:31;4.03;;;2.40;;
32172;SDS011;18679;45.190;5.722;2023-07-29T14:15:32;2.25;;;1.73;;
32172;SDS011;18679;45.190;5.722;2023-07-29T14:18:33;7.82;;;2.55;;
32172;SDS011;18679;45.190;5.722;2023-07-29T14:21:33;3.45;;;2.10;;
32172;SDS011;18679;45.190;5.722;2023-07-29T14:24:34;3.80;;;1.92;;
32172;SDS011;18679;45.190;5.722;2023-07-29T14:27:35;5.22;;;2.28;;
32172;SDS011;18679;45.190;5.722;2023-07-29T14:30:36;6.68;;;2.35;;
32172;SDS011;18679;45.190;5.722;2023-07-29T14:33:37;2.50;;;1.92;;
32172;SDS011;18679;45.190;5.722;2023-07-29T14:36:38;3.05;;;2.22;;
32172;SDS011;18679;45.190;5.722;2023-07-29T14:39:39;3.90;;;2.53;;
32172;SDS011;18679;45.190;5.722;2023-07-29T14:42:40;9.20;;;3.63;;
32172;SDS011;18679;45.190;5.722;2023-07-29T14:45:40;2.83;;;1.95;;
32172;SDS011;18679;45.190;5.722;2023-07-29T14:48:41;4.07;;;2.08;;
32172;SDS011;18679;45.190;5.722;2023-07-29T14:51:42;7.88;;;3.40;;
32172;SDS011;18679;45.190;5.722;2023-07-29T14:54:43;2.75;;;2.30;;
32172;SDS011;18679;45.190;5.722;2023-07-29T14:57:44;3.78;;;1.95;;
32172;SDS011;18679;45.190;5.722;2023-07-29T15:00:45;2.63;;;1.88;;
32172;SDS011;18679;45.190;5.722;2023-07-29T15:03:47;4.63;;;2.50;;
32172;SDS011;18679;45.190;5.722;2023-07-29T15:06:47;3.78;;;2.55;;
32172;SDS011;18679;45.190;5.722;2023-07-29T15:09:48;7.20;;;2.95;;
32172;SDS011;18679;45.190;5.722;2023-07-29T15:12:49;5.75;;;2.67;;
32172;SDS011;18679;45.190;5.722;2023-07-29T15:15:50;6.93;;;2.45;;
32172;SDS011;18679;45.190;5.722;2023-07-29T15:18:51;7.47;;;2.45;;
32172;SDS011;18679;45.190;5.722;2023-07-29T15:21:52;6.22;;;3.15;;
32172;SDS011;18679;45.190;5.722;2023-07-29T15:24:53;5.88;;;2.22;;
32172;SDS011;18679;45.190;5.722;2023-07-29T15:27:56;4.10;;;2.25;;
32172;SDS011;18679;45.190;5.722;2023-07-29T15:30:58;8.63;;;2.30;;
32172;SDS011;18679;45.190;5.722;2023-07-29T15:33:59;6.93;;;2.63;;
32172;SDS011;18679;45.190;5.722;2023-07-29T15:36:59;10.65;;;2.92;;
32172;SDS011;18679;45.190;5.722;2023-07-29T15:40:01;4.60;;;2.78;;
32172;SDS011;18679;45.190;5.722;2023-07-29T15:43:03;7.35;;;2.72;;
32172;SDS011;18679;45.190;5.722;2023-07-29T15:46:04;6.70;;;2.63;;
32172;SDS011;18679;45.190;5.722;2023-07-29T15:49:05;6.75;;;2.58;;
32172;SDS011;18679;45.190;5.722;2023-07-29T15:52:06;11.60;;;3.95;;
32172;SDS011;18679;45.190;5.722;2023-07-29T15:55:09;7.03;;;3.40;;
32172;SDS011;18679;45.190;5.722;2023-07-29T15:58:09;9.38;;;3.97;;
32172;SDS011;18679;45.190;5.722;2023-07-29T16:01:10;6.88;;;3.53;;
32172;SDS011;18679;45.190;5.722;2023-07-29T16:04:11;3.58;;;2.55;;
32172;SDS011;18679;45.190;5.722;2023-07-29T16:07:14;4.10;;;2.70;;
32172;SDS011;18679;45.190;5.722;2023-07-29T16:10:15;7.85;;;2.50;;
32172;SDS011;18679;45.190;5.722;2023-07-29T16:13:16;12.05;;;3.35;;
32172;SDS011;18679;45.190;5.722;2023-07-29T16:16:17;6.85;;;3.78;;
32172;SDS011;18679;45.190;5.722;2023-07-29T16:19:22;12.27;;;6.13;;
32172;SDS011;18679;45.190;5.722;2023-07-29T16:22:25;9.30;;;3.55;;
32172;SDS011;18679;45.190;5.722;2023-07-29T16:25:26;7.45;;;2.72;;
32172;SDS011;18679;45.190;5.722;2023-07-29T16:28:27;8.40;;;2.70;;
32172;SDS011;18679;45.190;5.722;2023-07-29T16:31:28;3.42;;;2.35;;
32172;SDS011;18679;45.190;5.722;2023-07-29T16:34:29;5.75;;;2.47;;
32172;SDS011;18679;45.190;5.722;2023-07-29T16:37:29;4.13;;;2.10;;
32172;SDS011;18679;45.190;5.722;2023-07-29T16:40:30;3.70;;;2.17;;
32172;SDS011;18679;45.190;5.722;2023-07-29T16:43:31;3.33;;;2.30;;
32172;SDS011;18679;45.190;5.722;2023-07-29T16:46:32;7.00;;;2.35;;
32172;SDS011;18679;45.190;5.722;2023-07-29T16:49:33;4.68;;;2.90;;
32172;SDS011;18679;45.190;5.722;2023-07-29T16:52:34;5.28;;;2.40;;
32172;SDS011;18679;45.190;5.722;2023-07-29T16:55:35;4.43;;;1.92;;
32172;SDS011;18679;45.190;5.722;2023-07-29T16:58:36;8.60;;;2.35;;
32172;SDS011;18679;45.190;5.722;2023-07-29T17:01:37;4.55;;;2.13;;
32172;SDS011;18679;45.190;5.722;2023-07-29T17:04:38;6.68;;;1.85;;
32172;SDS011;18679;45.190;5.722;2023-07-29T17:07:38;6.32;;;2.72;;
32172;SDS011;18679;45.190;5.722;2023-07-29T17:10:39;4.45;;;2.15;;
32172;SDS011;18679;45.190;5.722;2023-07-29T17:13:40;3.97;;;2.38;;
32172;SDS011;18679;45.190;5.722;2023-07-29T17:16:41;9.50;;;2.45;;
32172;SDS011;18679;45.190;5.722;2023-07-29T17:19:41;11.15;;;3.30;;
32172;SDS011;18679;45.190;5.722;2023-07-29T17:22:44;4.22;;;2.50;;
32172;SDS011;18679;45.190;5.722;2023-07-29T17:25:45;7.90;;;3.63;;
32172;SDS011;18679;45.190;5.722;2023-07-29T17:28:46;10.52;;;3.78;;
32172;SDS011;18679;45.190;5.722;2023-07-29T17:31:47;8.50;;;2.67;;
32172;SDS011;18679;45.190;5.722;2023-07-29T17:34:47;7.03;;;2.13;;
32172;SDS011;18679;45.190;5.722;2023-07-29T17:37:48;6.13;;;2.35;;
32172;SDS011;18679;45.190;5.722;2023-07-29T17:40:49;4.38;;;2.20;;
32172;SDS011;18679;45.190;5.722;2023-07-29T17:43:53;6.20;;;2.58;;
32172;SDS011;18679;45.190;5.722;2023-07-29T17:46:54;6.75;;;3.20;;
32172;SDS011;18679;45.190;5.722;2023-07-29T17:49:55;10.00;;;2.67;;
32172;SDS011;18679;45.190;5.722;2023-07-29T17:52:56;6.65;;;2.55;;
32172;SDS011;18679;45.190;5.722;2023-07-29T17:55:58;5.38;;;2.22;;
32172;SDS011;18679;45.190;5.722;2023-07-29T17:58:59;5.15;;;2.75;;
32172;SDS011;18679;45.190;5.722;2023-07-29T18:01:59;6.88;;;2.42;;
32172;SDS011;18679;45.190;5.722;2023-07-29T18:05:00;5.00;;;2.72;;
32172;SDS011;18679;45.190;5.722;2023-07-29T18:08:02;11.70;;;3.03;;
32172;SDS011;18679;45.190;5.722;2023-07-29T18:11:03;7.35;;;3.35;;
32172;SDS011;18679;45.190;5.722;2023-07-29T18:14:04;7.93;;;3.38;;
32172;SDS011;18679;45.190;5.722;2023-07-29T18:17:04;8.98;;;3.03;;
32172;SDS011;18679;45.190;5.722;2023-07-29T18:20:05;9.45;;;3.17;;
32172;SDS011;18679;45.190;5.722;2023-07-29T18:23:07;6.78;;;3.55;;
32172;SDS011;18679;45.190;5.722;2023-07-29T18:26:08;14.52;;;3.75;;